KSCF/SCF METAR and TAF weather

Enter ICAO airport designator
Station Type Date Time Source
KSCF METAR 2021/03/01 02:25 UTC NOAA

KSCF 010225Z AUTO 15014KT M1/4SM FG OVC090 20/20 A2997 RMK A01


Station Type Date Time Source
KSCF Decoded METAR 2021/03/01 02:25 UTC NOAA

South Marsh 268, LA, United States (KSCF) 29-06-57N 091-52-16W
Feb 28, 2021 - 09:25 PM EST / 2021.03.01 0225 UTC
Wind: from the SSE (150 degrees) at 16 MPH (14 KT):0
Visibility: less than 1/4 mile(s):1
Sky conditions: overcast
Weather: fog
Temperature: 68 F (20 C)
Dew Point: 68 F (20 C)
Relative Humidity: 100%
Pressure (altimeter): 29.97 in. Hg (1014 hPa)
ob: KSCF 010225Z AUTO 15014KT M1/4SM FG OVC090 20/20 A2997 RMK A01
cycle: 2

Station Type Date Time Source
KSCF TAF UTC NOAA

Error!

Example: see airport list